Time;durP1;ratioP1;P1;durP2;ratioP2;P2;SDS_P1;SDS_P2;PMS_P1;PMS_P2;Temp;Humidity;BMP_temperature;BMP_pressure;BME280_temperature;BME280_humidity;BME280_pressure;Samples;Min_cycle;Max_cycle;Signal;HPM_P1;HPM_P2
2023/03/07 00:02:23;;;;;;;9.13;4.90;;;0.90;99.90;;;;;;5008357;28;20300;-69
2023/03/07 00:04:57;;;;;;;7.37;4.90;;;0.80;99.90;;;;;;5010478;28;20284;-69
2023/03/07 00:07:26;;;;;;;5.50;5.00;;;0.90;99.90;;;;;;5010756;28;20206;-68
2023/03/07 00:09:53;;;;;;;5.73;4.77;;;0.80;99.90;;;;;;5010035;28;20233;-69
2023/03/07 00:12:21;;;;;;;5.27;4.77;;;0.90;99.90;;;;;;5010664;28;20205;-69
2023/03/07 00:14:47;;;;;;;6.17;5.50;;;0.90;99.90;;;;;;5010210;28;20220;-69
2023/03/07 00:17:14;;;;;;;6.60;5.23;;;1.00;99.90;;;;;;5010571;28;20249;-69
2023/03/07 00:19:42;;;;;;;6.93;6.20;;;1.10;99.90;;;;;;5010334;28;20293;-68
2023/03/07 00:22:09;;;;;;;8.03;5.97;;;1.10;99.90;;;;;;5010877;28;20210;-68
2023/03/07 00:24:37;;;;;;;6.47;5.87;;;1.10;99.90;;;;;;5009934;28;20743;-69
2023/03/07 00:27:05;;;;;;;8.20;5.90;;;1.10;99.90;;;;;;4990885;28;20689;-69
2023/03/07 00:29:32;;;;;;;6.70;6.00;;;1.20;99.90;;;;;;4990704;28;20747;-69
2023/03/07 00:31:59;;;;;;;6.73;6.07;;;1.20;99.90;;;;;;4994263;28;20248;-68
2023/03/07 00:34:25;;;;;;;7.60;6.67;;;1.20;99.90;;;;;;5010555;28;20242;-69
2023/03/07 00:36:53;;;;;;;6.40;5.80;;;1.20;99.90;;;;;;5010002;28;20561;-68
2023/03/07 00:39:20;;;;;;;7.33;6.50;;;1.20;99.90;;;;;;5009970;28;20727;-69
2023/03/07 00:41:48;;;;;;;6.97;6.27;;;1.20;99.90;;;;;;5009362;28;20240;-68
2023/03/07 00:44:15;;;;;;;7.53;6.83;;;1.20;99.90;;;;;;5010046;28;20218;-68
2023/03/07 00:46:42;;;;;;;7.70;6.33;;;1.20;99.90;;;;;;5009998;28;20241;-69
2023/03/07 00:49:09;;;;;;;6.70;6.07;;;1.20;99.90;;;;;;5009432;28;20211;-68
2023/03/07 00:51:36;;;;;;;7.17;6.47;;;1.20;99.90;;;;;;5010091;28;20370;-68
2023/03/07 00:54:02;;;;;;;7.13;6.43;;;1.20;99.90;;;;;;5010059;28;20275;-68
2023/03/07 00:56:29;;;;;;;9.27;6.97;;;1.20;99.90;;;;;;5009893;28;20312;-68
2023/03/07 00:58:58;;;;;;;7.37;6.67;;;1.20;99.90;;;;;;5009226;28;20669;-68
2023/03/07 01:01:25;;;;;;;9.10;7.40;;;1.30;99.90;;;;;;5009937;28;20289;-68
2023/03/07 01:03:53;;;;;;;7.50;6.80;;;1.30;99.90;;;;;;5009572;28;20315;-68
2023/03/07 01:06:21;;;;;;;8.03;7.27;;;1.30;99.90;;;;;;5009622;28;20209;-68
2023/03/07 01:08:48;;;;;;;7.47;6.50;;;1.30;99.90;;;;;;5008993;28;20238;-68
2023/03/07 01:11:16;;;;;;;7.40;6.70;;;1.30;99.90;;;;;;4996538;28;20308;-68
2023/03/07 01:13:43;;;;;;;8.00;7.20;;;1.30;99.90;;;;;;5008804;28;20324;-68
2023/03/07 01:16:13;;;;;;;8.63;7.50;;;1.30;99.90;;;;;;5009869;28;20296;-69
2023/03/07 01:18:40;;;;;;;7.57;6.67;;;1.30;99.90;;;;;;5008931;28;20768;-69
2023/03/07 01:21:12;;;;;;;8.73;6.63;;;1.30;99.90;;;;;;5009570;28;20201;-68
2023/03/07 01:23:39;;;;;;;8.07;7.27;;;1.30;99.90;;;;;;5009354;28;20244;-68
2023/03/07 01:26:06;;;;;;;7.80;7.00;;;1.30;99.90;;;;;;5009119;28;20221;-69
2023/03/07 01:28:33;;;;;;;8.70;7.67;;;1.30;99.90;;;;;;5008997;28;20213;-68
2023/03/07 01:31:00;;;;;;;8.37;7.57;;;1.30;99.90;;;;;;5009313;28;20300;-68
2023/03/07 01:33:28;;;;;;;10.03;7.47;;;1.30;99.90;;;;;;5009230;28;20231;-68
2023/03/07 01:35:55;;;;;;;9.00;7.50;;;1.30;99.90;;;;;;5008654;28;20300;-68
2023/03/07 01:38:22;;;;;;;9.23;7.90;;;1.30;99.90;;;;;;5008784;28;20237;-68
2023/03/07 01:40:49;;;;;;;9.20;8.30;;;1.30;99.90;;;;;;5008760;28;20740;-68
2023/03/07 01:43:23;;;;;;;10.20;8.70;;;1.30;99.90;;;;;;5009254;28;20288;-68
2023/03/07 01:46:34;;;;;;;9.77;8.30;;;1.30;99.90;;;;;;5009086;28;20206;-69
2023/03/07 01:49:08;;;;;;;10.80;9.20;;;1.30;99.90;;;;;;4967110;28;20280;-69
2023/03/07 01:51:36;;;;;;;10.10;8.60;;;1.30;99.90;;;;;;5005272;28;20245;-69
2023/03/07 01:54:04;;;;;;;10.10;8.03;;;1.30;99.90;;;;;;5008953;28;20306;-69
2023/03/07 01:56:31;;;;;;;10.20;8.20;;;1.30;99.90;;;;;;5009114;28;20212;-69
2023/03/07 01:58:58;;;;;;;12.83;10.00;;;1.40;99.90;;;;;;5008565;28;20225;-71
2023/03/07 02:01:27;;;;;;;12.93;10.40;;;1.40;99.90;;;;;;5008981;28;20296;-70
2023/03/07 02:03:57;;;;;;;13.67;10.97;;;1.40;99.90;;;;;;5008782;28;20643;-72
2023/03/07 02:06:29;;;;;;;11.57;9.33;;;1.40;99.90;;;;;;5009286;28;20200;-72
2023/03/07 02:08:58;;;;;;;14.57;11.20;;;1.40;99.90;;;;;;5008122;28;20237;-70
2023/03/07 02:11:26;;;;;;;14.00;10.67;;;1.40;99.90;;;;;;5009011;28;20217;-71
2023/03/07 02:13:53;;;;;;;15.13;12.07;;;1.40;99.90;;;;;;5007908;28;20803;-71
2023/03/07 02:16:20;;;;;;;14.37;11.03;;;1.40;99.90;;;;;;5008979;28;20220;-70
2023/03/07 02:18:49;;;;;;;15.10;11.17;;;1.40;99.90;;;;;;5008183;28;20718;-70
2023/03/07 02:21:25;;;;;;;15.50;11.90;;;1.40;99.90;;;;;;5008854;28;20260;-70
2023/03/07 02:24:00;;;;;;;18.30;13.10;;;1.50;99.90;;;;;;5008493;28;20696;-70
2023/03/07 02:26:37;;;;;;;17.43;12.63;;;1.50;99.90;;;;;;5007873;28;20666;-71
2023/03/07 02:29:04;;;;;;;17.33;12.27;;;1.50;99.90;;;;;;5007949;28;20288;-70
2023/03/07 02:31:31;;;;;;;17.03;12.90;;;1.50;99.90;;;;;;5008634;28;20758;-70
2023/03/07 02:33:58;;;;;;;16.83;12.07;;;1.50;99.90;;;;;;5007495;28;20763;-71
2023/03/07 02:36:29;;;;;;;18.40;12.87;;;1.50;99.90;;;;;;5008252;28;20213;-70
2023/03/07 02:38:57;;;;;;;18.33;13.50;;;1.50;99.90;;;;;;5007785;28;20309;-70
2023/03/07 02:41:28;;;;;;;19.20;13.53;;;1.50;99.90;;;;;;5007804;28;20344;-71
2023/03/07 02:43:57;;;;;;;18.57;13.97;;;1.50;99.90;;;;;;5007293;28;20241;-70
2023/03/07 02:46:23;;;;;;;19.80;13.70;;;1.60;99.90;;;;;;5007948;28;20220;-70
2023/03/07 02:48:50;;;;;;;17.63;13.50;;;1.60;99.90;;;;;;5007842;28;20296;-70
2023/03/07 02:51:17;;;;;;;18.47;13.27;;;1.60;99.90;;;;;;5007858;28;20309;-70
2023/03/07 02:53:45;;;;;;;19.90;14.40;;;1.60;99.90;;;;;;5007304;28;20300;-70
2023/03/07 02:56:12;;;;;;;20.00;14.43;;;1.60;99.90;;;;;;5007635;28;20209;-71
2023/03/07 02:58:39;;;;;;;20.17;14.43;;;1.70;99.90;;;;;;5007189;28;20308;-70
2023/03/07 03:01:07;;;;;;;21.27;13.90;;;1.70;99.90;;;;;;5007669;28;20291;-71
2023/03/07 03:03:34;;;;;;;19.40;13.80;;;1.70;99.90;;;;;;5007172;28;20300;-71
2023/03/07 03:06:01;;;;;;;17.33;13.23;;;1.70;99.90;;;;;;5007281;28;20212;-69
2023/03/07 03:08:27;;;;;;;19.17;13.10;;;1.70;99.90;;;;;;5007348;28;20276;-69
2023/03/07 03:10:55;;;;;;;21.33;14.57;;;1.70;99.90;;;;;;5007128;28;20293;-70
2023/03/07 03:13:22;;;;;;;21.10;14.07;;;1.70;99.90;;;;;;5007585;28;20257;-70
2023/03/07 03:15:50;;;;;;;19.07;14.33;;;1.70;99.90;;;;;;5007423;28;20211;-70
2023/03/07 03:18:18;;;;;;;19.50;13.77;;;1.70;99.90;;;;;;5007065;28;20260;-71
2023/03/07 03:20:45;;;;;;;21.83;14.53;;;1.70;99.90;;;;;;5007077;28;20687;-70
2023/03/07 03:23:12;;;;;;;19.67;13.57;;;1.80;99.90;;;;;;5007492;28;20300;-69
2023/03/07 03:25:39;;;;;;;22.17;14.40;;;1.80;99.90;;;;;;5007324;28;20312;-71
2023/03/07 03:28:06;;;;;;;20.00;14.67;;;1.80;99.90;;;;;;5001002;28;20244;-70
2023/03/07 03:30:34;;;;;;;18.40;13.00;;;1.80;99.90;;;;;;5003682;28;20209;-69
2023/03/07 03:33:02;;;;;;;20.43;14.43;;;1.80;99.90;;;;;;5005273;28;20679;-69
2023/03/07 03:35:32;;;;;;;20.47;14.17;;;1.80;99.90;;;;;;5004957;28;20206;-69
2023/03/07 03:37:59;;;;;;;17.93;12.93;;;1.80;99.90;;;;;;5021121;28;20203;-69
2023/03/07 03:40:26;;;;;;;20.97;13.97;;;1.80;99.90;;;;;;5004753;28;20707;-69
2023/03/07 03:42:53;;;;;;;19.73;13.90;;;1.90;99.90;;;;;;5004629;28;20296;-70
2023/03/07 03:45:20;;;;;;;21.20;13.57;;;1.90;99.90;;;;;;5005050;28;20208;-69
2023/03/07 03:47:49;;;;;;;22.30;14.00;;;1.90;99.90;;;;;;5004828;28;20300;-69
2023/03/07 03:50:16;;;;;;;20.90;13.67;;;1.90;99.90;;;;;;5004801;28;20213;-70
2023/03/07 03:52:44;;;;;;;19.23;13.80;;;1.90;99.90;;;;;;5004473;28;20213;-70
2023/03/07 03:55:12;;;;;;;20.83;14.13;;;1.90;99.90;;;;;;5004690;28;20632;-70
2023/03/07 03:57:38;;;;;;;20.07;13.73;;;1.90;99.90;;;;;;5004405;28;20651;-69
2023/03/07 04:00:07;;;;;;;20.63;13.50;;;2.00;99.90;;;;;;5004514;28;20392;-70
2023/03/07 04:02:34;;;;;;;19.93;13.63;;;1.90;99.90;;;;;;5004867;28;20245;-70
2023/03/07 04:05:01;;;;;;;20.43;13.63;;;1.90;99.90;;;;;;5004681;28;20245;-69
2023/03/07 04:07:28;;;;;;;20.50;13.93;;;1.80;99.90;;;;;;5001890;28;20802;-70
2023/03/07 04:09:57;;;;;;;20.77;13.67;;;1.90;99.90;;;;;;5005608;28;20344;-70
2023/03/07 04:12:24;;;;;;;19.13;13.37;;;1.80;99.90;;;;;;5005847;28;20728;-70
2023/03/07 04:14:51;;;;;;;19.50;14.03;;;1.80;99.90;;;;;;5006197;28;20728;-70
2023/03/07 04:17:17;;;;;;;19.83;13.43;;;1.90;99.90;;;;;;5006390;28;21028;-70
2023/03/07 04:19:44;;;;;;;20.47;13.73;;;1.80;99.90;;;;;;5006383;28;20332;-69
2023/03/07 04:22:11;;;;;;;21.67;13.43;;;1.90;99.90;;;;;;5006491;28;20236;-70
2023/03/07 04:24:38;;;;;;;19.50;13.47;;;1.80;99.90;;;;;;5006302;28;20292;-70
2023/03/07 04:27:07;;;;;;;19.83;13.93;;;1.80;99.90;;;;;;4986859;28;20206;-70
2023/03/07 04:29:34;;;;;;;19.93;14.03;;;1.80;99.90;;;;;;4986867;28;20225;-70
2023/03/07 04:32:01;;;;;;;18.27;12.53;;;1.80;99.90;;;;;;4986785;28;20305;-70
2023/03/07 04:34:28;;;;;;;18.03;13.07;;;1.80;99.90;;;;;;4986685;28;20245;-70
2023/03/07 04:36:54;;;;;;;19.77;13.63;;;1.70;99.90;;;;;;5005391;28;20306;-70
2023/03/07 04:39:21;;;;;;;19.20;13.30;;;1.70;99.90;;;;;;5025808;28;20701;-70
2023/03/07 04:41:48;;;;;;;21.90;13.80;;;1.70;99.90;;;;;;5015061;28;20431;-69
2023/03/07 04:44:16;;;;;;;20.60;13.93;;;1.70;99.90;;;;;;5006154;28;20658;-70
2023/03/07 04:46:46;;;;;;;21.63;14.70;;;1.70;99.90;;;;;;5006432;28;20303;-70
2023/03/07 04:49:13;;;;;;;18.90;13.80;;;1.70;99.90;;;;;;5008964;28;20292;-70
2023/03/07 04:51:40;;;;;;;19.57;13.17;;;1.60;99.90;;;;;;5010037;28;20229;-70
2023/03/07 04:54:07;;;;;;;21.57;13.73;;;1.60;99.90;;;;;;5009905;28;20241;-70
2023/03/07 04:56:34;;;;;;;22.13;14.17;;;1.60;99.90;;;;;;5009576;28;20318;-70
2023/03/07 04:59:01;;;;;;;21.13;13.93;;;1.60;99.90;;;;;;5009457;28;20268;-70
2023/03/07 05:01:29;;;;;;;21.17;13.30;;;1.60;99.90;;;;;;5009546;28;20215;-70
2023/03/07 05:03:56;;;;;;;21.57;14.20;;;1.60;99.90;;;;;;5009194;28;20665;-70
2023/03/07 05:06:23;;;;;;;18.27;12.83;;;1.60;99.90;;;;;;5009463;28;20221;-69
2023/03/07 05:08:50;;;;;;;20.27;13.33;;;1.50;99.90;;;;;;5009137;28;20670;-69
2023/03/07 05:11:17;;;;;;;21.03;13.30;;;1.50;99.90;;;;;;5009547;28;20295;-69
2023/03/07 05:13:44;;;;;;;18.67;13.00;;;1.50;99.90;;;;;;5008750;28;20300;-69
2023/03/07 05:16:17;;;;;;;20.37;13.17;;;1.40;99.90;;;;;;5009722;28;20245;-69
2023/03/07 05:18:45;;;;;;;22.03;13.87;;;1.40;99.90;;;;;;5009386;28;20213;-70
2023/03/07 05:21:12;;;;;;;20.23;13.33;;;1.40;99.90;;;;;;5009084;28;20317;-70
2023/03/07 05:23:39;;;;;;;21.00;13.17;;;1.40;99.90;;;;;;5009402;28;20319;-70
2023/03/07 05:26:06;;;;;;;24.70;13.80;;;1.30;99.90;;;;;;5009059;28;20244;-70
2023/03/07 05:28:33;;;;;;;19.87;13.17;;;1.40;99.90;;;;;;5009099;28;20300;-70
2023/03/07 05:31:00;;;;;;;21.33;13.43;;;1.40;99.90;;;;;;5009508;28;20245;-70
2023/03/07 05:33:27;;;;;;;22.20;14.50;;;1.30;99.90;;;;;;5009533;28;20290;-70
2023/03/07 05:35:59;;;;;;;21.20;12.87;;;1.40;99.90;;;;;;5010326;28;20306;-70
2023/03/07 05:38:26;;;;;;;21.40;13.63;;;1.40;99.90;;;;;;5029120;28;20215;-70
2023/03/07 05:40:53;;;;;;;21.87;13.17;;;1.40;99.90;;;;;;5025409;28;20338;-70
2023/03/07 05:43:20;;;;;;;21.83;14.10;;;1.40;99.90;;;;;;5008890;28;20294;-68
2023/03/07 05:45:47;;;;;;;20.53;12.43;;;1.40;99.90;;;;;;5008641;28;20754;-69
2023/03/07 05:48:14;;;;;;;22.03;13.97;;;1.50;99.90;;;;;;5008964;28;20727;-69
2023/03/07 05:50:41;;;;;;;20.83;13.57;;;1.40;99.90;;;;;;5008895;28;20316;-70
2023/03/07 05:53:10;;;;;;;18.77;12.83;;;1.40;99.90;;;;;;5009182;28;20206;-69
2023/03/07 05:55:36;;;;;;;17.40;12.40;;;1.40;99.90;;;;;;5008914;28;20297;-68
2023/03/07 05:58:04;;;;;;;19.57;12.57;;;1.50;99.90;;;;;;5008665;28;20284;-69
2023/03/07 06:00:30;;;;;;;20.93;13.77;;;1.50;99.90;;;;;;5007677;28;20772;-69
2023/03/07 06:02:57;;;;;;;19.83;12.93;;;1.50;99.90;;;;;;5007578;28;20334;-69
2023/03/07 06:05:24;;;;;;;19.77;12.73;;;1.50;99.90;;;;;;5008315;28;20743;-70
2023/03/07 06:07:51;;;;;;;20.23;13.40;;;1.50;99.90;;;;;;5008217;28;20731;-69
2023/03/07 06:10:19;;;;;;;19.20;12.87;;;1.50;99.90;;;;;;5008403;28;20297;-70
2023/03/07 06:12:49;;;;;;;22.17;13.63;;;1.50;99.90;;;;;;5008508;28;20289;-70
2023/03/07 06:15:16;;;;;;;18.07;12.30;;;1.50;99.90;;;;;;5008347;28;20277;-69
2023/03/07 06:17:43;;;;;;;19.03;12.13;;;1.60;99.90;;;;;;5008083;28;20206;-69
2023/03/07 06:20:12;;;;;;;19.10;12.53;;;1.60;99.90;;;;;;5008165;28;20723;-69
2023/03/07 06:22:38;;;;;;;20.90;12.73;;;1.70;99.90;;;;;;5008334;28;20659;-70
2023/03/07 06:25:07;;;;;;;16.50;11.97;;;1.60;99.90;;;;;;5008320;28;20320;-70
2023/03/07 06:27:36;;;;;;;19.53;12.40;;;1.60;99.90;;;;;;5008337;28;20677;-70
2023/03/07 06:30:05;;;;;;;17.10;11.20;;;1.70;99.90;;;;;;5007849;28;20307;-70
2023/03/07 06:32:32;;;;;;;20.33;12.87;;;1.70;99.90;;;;;;5008050;28;20581;-70
2023/03/07 06:34:59;;;;;;;19.33;12.47;;;1.70;99.90;;;;;;5008049;28;20308;-70
2023/03/07 06:37:26;;;;;;;17.90;12.53;;;1.70;99.90;;;;;;5021600;28;20205;-69
2023/03/07 06:39:54;;;;;;;19.67;12.40;;;1.70;99.90;;;;;;5027564;28;20232;-70
2023/03/07 06:42:21;;;;;;;18.57;12.40;;;1.70;99.90;;;;;;5012385;28;20209;-70
2023/03/07 06:44:49;;;;;;;18.40;12.47;;;1.80;99.90;;;;;;5007470;28;20737;-70
2023/03/07 06:47:16;;;;;;;17.27;12.60;;;1.80;99.90;;;;;;5008310;28;20209;-70
2023/03/07 06:49:43;;;;;;;18.67;12.90;;;1.80;99.90;;;;;;5007686;28;20300;-70
2023/03/07 06:52:10;;;;;;;16.73;11.43;;;1.80;99.90;;;;;;5007934;28;20300;-69
2023/03/07 06:54:37;;;;;;;21.37;12.70;;;1.90;99.90;;;;;;5007638;28;20296;-70
2023/03/07 06:57:04;;;;;;;17.97;12.00;;;1.80;99.90;;;;;;5007621;28;20312;-69
2023/03/07 06:59:31;;;;;;;16.93;12.03;;;1.80;99.90;;;;;;5007206;28;20583;-69
2023/03/07 07:02:01;;;;;;;19.77;12.40;;;1.90;99.90;;;;;;5007203;28;20623;-69
2023/03/07 07:04:29;;;;;;;19.47;11.83;;;1.90;99.90;;;;;;5007427;28;20201;-69
2023/03/07 07:06:56;;;;;;;17.80;11.70;;;1.90;99.90;;;;;;5007310;28;20288;-68
2023/03/07 07:09:23;;;;;;;17.83;11.83;;;1.90;99.90;;;;;;5006865;28;20339;-68
2023/03/07 07:11:49;;;;;;;15.23;10.57;;;1.90;99.90;;;;;;5006793;28;20683;-69
2023/03/07 07:14:16;;;;;;;15.53;11.20;;;1.90;99.90;;;;;;5006933;28;20300;-69
2023/03/07 07:16:43;;;;;;;16.20;11.47;;;2.00;99.90;;;;;;5007438;28;20288;-69
2023/03/07 07:19:11;;;;;;;14.87;11.07;;;2.00;99.90;;;;;;5007323;28;20233;-69
2023/03/07 07:21:38;;;;;;;14.17;10.50;;;2.00;99.90;;;;;;5007079;28;20278;-69
2023/03/07 07:24:05;;;;;;;13.80;10.47;;;2.00;99.90;;;;;;5007198;28;20280;-69
2023/03/07 07:26:32;;;;;;;16.23;9.67;;;2.10;99.90;;;;;;5007117;28;20730;-69
2023/03/07 07:28:59;;;;;;;14.10;10.30;;;2.10;99.90;;;;;;5007154;28;20320;-69
2023/03/07 07:31:26;;;;;;;16.63;10.90;;;2.20;99.90;;;;;;5007263;28;20701;-69
2023/03/07 07:33:53;;;;;;;13.70;10.40;;;2.20;99.90;;;;;;5006670;28;20746;-69
2023/03/07 07:36:22;;;;;;;15.10;10.90;;;2.20;99.90;;;;;;5011712;28;20648;-70
2023/03/07 07:38:49;;;;;;;13.93;9.93;;;2.30;99.90;;;;;;5026593;28;20690;-68
2023/03/07 07:41:17;;;;;;;13.83;9.57;;;2.30;99.90;;;;;;5020331;28;20328;-69
2023/03/07 07:43:45;;;;;;;13.57;9.50;;;2.30;99.90;;;;;;5006634;28;20605;-69
2023/03/07 07:46:12;;;;;;;13.60;9.57;;;2.30;99.90;;;;;;5006970;28;20304;-69
2023/03/07 07:48:39;;;;;;;14.53;10.17;;;2.30;99.90;;;;;;5006995;28;20301;-69
2023/03/07 07:51:06;;;;;;;12.13;9.20;;;2.30;99.90;;;;;;5006950;28;20220;-69
2023/03/07 07:53:34;;;;;;;12.77;9.03;;;2.30;99.90;;;;;;5006785;28;20210;-69
2023/03/07 07:56:01;;;;;;;14.67;10.10;;;2.40;99.90;;;;;;5006897;28;20256;-69
2023/03/07 07:58:28;;;;;;;15.57;9.97;;;2.40;99.90;;;;;;5006527;28;20692;-69
2023/03/07 08:00:55;;;;;;;13.37;9.27;;;2.40;99.90;;;;;;5006636;28;20229;-69
2023/03/07 08:03:22;;;;;;;13.80;9.80;;;2.40;99.90;;;;;;5006786;28;20256;-69
2023/03/07 08:05:49;;;;;;;12.60;9.17;;;2.40;99.90;;;;;;5006712;28;20206;-69
2023/03/07 08:08:17;;;;;;;16.10;10.67;;;2.50;99.90;;;;;;5006488;28;20603;-69
2023/03/07 08:10:47;;;;;;;13.00;9.37;;;2.50;99.90;;;;;;5006321;28;20297;-69
2023/03/07 08:13:15;;;;;;;11.90;9.17;;;2.50;99.90;;;;;;5006444;28;20208;-69
2023/03/07 08:15:42;;;;;;;13.53;9.30;;;2.50;99.90;;;;;;5006841;28;20233;-69
2023/03/07 08:18:09;;;;;;;13.20;9.47;;;2.50;99.90;;;;;;5006903;28;20631;-69
2023/03/07 08:20:37;;;;;;;11.93;9.47;;;2.50;99.90;;;;;;5005831;28;21054;-69
2023/03/07 08:23:04;;;;;;;13.43;9.50;;;2.50;99.90;;;;;;5007131;28;20252;-69
2023/03/07 08:25:31;;;;;;;11.13;8.63;;;2.50;99.90;;;;;;5010493;28;20214;-69
2023/03/07 08:28:02;;;;;;;14.97;10.33;;;2.50;99.90;;;;;;5010025;28;20205;-69
2023/03/07 08:30:30;;;;;;;12.60;10.20;;;2.50;99.90;;;;;;5010484;28;20801;-69
2023/03/07 08:32:58;;;;;;;15.70;11.33;;;2.50;99.90;;;;;;5010336;28;20300;-69
2023/03/07 08:35:26;;;;;;;15.07;10.40;;;2.50;99.90;;;;;;5010258;28;20221;-69
2023/03/07 08:37:54;;;;;;;11.13;8.97;;;2.60;99.90;;;;;;5027536;28;20300;-69
2023/03/07 08:40:22;;;;;;;12.60;9.27;;;2.60;99.90;;;;;;5030169;28;20317;-69
2023/03/07 08:42:49;;;;;;;11.67;9.47;;;2.60;99.90;;;;;;5010562;28;20221;-69
2023/03/07 08:45:18;;;;;;;13.83;10.13;;;2.70;99.90;;;;;;5010004;28;20296;-69
2023/03/07 08:47:45;;;;;;;10.93;9.27;;;2.70;99.90;;;;;;5010275;28;20248;-69
2023/03/07 08:50:12;;;;;;;12.30;8.97;;;2.70;99.90;;;;;;5010061;28;20305;-69
2023/03/07 08:52:39;;;;;;;13.93;9.97;;;2.70;99.90;;;;;;5009934;28;20676;-70
2023/03/07 08:55:06;;;;;;;12.40;9.30;;;2.80;99.90;;;;;;5010311;28;20298;-69
2023/03/07 08:57:33;;;;;;;11.73;9.30;;;2.80;99.90;;;;;;5010030;28;20344;-70
2023/03/07 09:00:00;;;;;;;10.80;8.97;;;2.80;99.90;;;;;;5009760;28;20432;-69
2023/03/07 09:02:28;;;;;;;10.77;8.80;;;2.90;99.90;;;;;;5010059;28;20240;-69
2023/03/07 09:04:55;;;;;;;11.13;8.83;;;2.90;99.90;;;;;;5009611;28;20292;-69
2023/03/07 09:07:22;;;;;;;11.03;8.80;;;2.90;99.90;;;;;;5008301;28;20241;-69
2023/03/07 09:09:49;;;;;;;11.83;9.33;;;3.00;99.90;;;;;;5009069;28;20284;-70
2023/03/07 09:12:16;;;;;;;10.37;8.67;;;3.00;99.90;;;;;;5009480;28;20223;-70
2023/03/07 09:14:43;;;;;;;11.43;9.03;;;3.10;99.90;;;;;;5009295;28;20213;-70
2023/03/07 09:17:10;;;;;;;10.40;8.50;;;3.10;99.90;;;;;;5009502;28;20206;-70
2023/03/07 09:19:38;;;;;;;9.63;8.33;;;3.10;99.90;;;;;;5008874;28;20251;-70
2023/03/07 09:22:05;;;;;;;10.67;8.27;;;3.20;99.90;;;;;;5009568;28;20241;-70
2023/03/07 09:24:32;;;;;;;10.40;7.97;;;3.20;99.90;;;;;;5009441;28;20638;-70
2023/03/07 09:26:59;;;;;;;9.03;7.43;;;3.20;99.90;;;;;;5009384;28;20308;-69
2023/03/07 09:29:26;;;;;;;8.97;7.07;;;3.20;99.90;;;;;;5008737;28;20272;-70
2023/03/07 09:31:53;;;;;;;10.73;8.10;;;3.30;99.90;;;;;;5009021;28;20863;-70
2023/03/07 09:34:20;;;;;;;9.97;8.07;;;3.30;99.90;;;;;;5008322;28;20217;-70
2023/03/07 09:36:50;;;;;;;8.63;7.13;;;3.30;99.90;;;;;;5016683;28;20701;-70
2023/03/07 09:39:17;;;;;;;9.37;7.17;;;3.40;99.90;;;;;;5028837;28;20282;-70
2023/03/07 09:42:10;;;;;;;7.93;7.13;;;3.50;99.90;;;;;;5017975;28;20339;-70
2023/03/07 09:44:54;;;;;;;7.43;6.70;;;3.50;99.90;;;;;;5008881;28;20205;-70
2023/03/07 09:47:38;;;;;;;8.13;6.80;;;3.60;99.90;;;;;;5008933;28;20691;-70
2023/03/07 09:50:13;;;;;;;7.67;6.93;;;3.70;99.90;;;;;;5009319;28;20565;-70
2023/03/07 09:52:43;;;;;;;6.83;6.13;;;3.70;99.90;;;;;;5008796;28;20240;-70
2023/03/07 09:55:15;;;;;;;6.67;5.97;;;3.70;99.90;;;;;;5009059;28;20217;-70
2023/03/07 09:57:49;;;;;;;7.40;6.70;;;3.80;99.90;;;;;;5008555;28;20324;-70
2023/03/07 10:00:21;;;;;;;6.70;6.10;;;3.80;99.90;;;;;;5009033;28;20284;-70
2023/03/07 10:02:51;;;;;;;7.57;6.27;;;3.90;99.90;;;;;;5008549;28;20238;-70
2023/03/07 10:05:30;;;;;;;7.47;5.87;;;3.90;99.90;;;;;;5008570;28;20752;-70
2023/03/07 10:08:01;;;;;;;5.27;4.80;;;3.90;99.90;;;;;;5008700;28;20233;-70
2023/03/07 10:10:36;;;;;;;6.63;5.90;;;3.90;99.90;;;;;;5008538;28;20256;-70
2023/03/07 10:13:31;;;;;;;6.20;5.43;;;4.00;99.90;;;;;;4996707;28;20209;-69
2023/03/07 10:16:01;;;;;;;5.53;5.03;;;4.00;99.90;;;;;;5004798;28;20271;-70
2023/03/07 10:18:41;;;;;;;5.00;4.60;;;4.00;99.90;;;;;;5008378;28;20232;-69
2023/03/07 10:21:18;;;;;;;5.23;4.73;;;4.00;99.90;;;;;;5008519;28;20304;-69
2023/03/07 10:24:18;;;;;;;4.93;4.47;;;4.00;99.90;;;;;;5008154;28;20809;-69
2023/03/07 10:26:50;;;;;;;4.83;4.43;;;4.10;99.90;;;;;;5007959;28;20296;-69
2023/03/07 10:29:19;;;;;;;4.27;3.93;;;4.10;99.90;;;;;;5007560;28;20297;-70
2023/03/07 10:31:49;;;;;;;4.07;3.77;;;4.10;99.90;;;;;;5008049;28;20213;-69
2023/03/07 10:34:18;;;;;;;3.60;3.40;;;4.00;99.90;;;;;;5007960;28;20244;-70
2023/03/07 10:36:46;;;;;;;2.97;2.67;;;4.00;99.90;;;;;;5015989;28;20209;-69
2023/03/07 10:39:24;;;;;;;4.70;3.87;;;4.00;99.90;;;;;;5027916;28;20628;-69
2023/03/07 10:41:51;;;;;;;3.37;3.17;;;4.00;99.90;;;;;;5027587;28;20676;-69
2023/03/07 10:44:20;;;;;;;3.23;2.93;;;4.00;99.90;;;;;;5027740;28;20243;-70
2023/03/07 10:46:55;;;;;;;2.73;2.53;;;4.00;99.90;;;;;;5027223;28;20254;-70
2023/03/07 10:49:26;;;;;;;2.80;2.60;;;3.90;99.90;;;;;;5027482;28;20202;-69
2023/03/07 10:51:58;;;;;;;3.20;3.00;;;3.90;99.90;;;;;;5027292;28;20247;-70
2023/03/07 10:54:30;;;;;;;2.50;2.30;;;3.90;99.90;;;;;;5027717;28;20564;-69
2023/03/07 10:57:08;;;;;;;2.93;2.67;;;3.90;99.90;;;;;;5027226;28;20257;-69
2023/03/07 10:59:36;;;;;;;2.77;2.57;;;3.90;99.90;;;;;;5016297;28;20332;-69
2023/03/07 11:02:18;;;;;;;3.20;2.90;;;3.90;99.90;;;;;;5007574;28;20336;-70
2023/03/07 11:04:46;;;;;;;2.87;2.57;;;3.90;99.90;;;;;;4988154;28;20297;-71
2023/03/07 11:07:27;;;;;;;2.93;2.73;;;3.90;99.90;;;;;;4988120;28;20276;-70
2023/03/07 11:09:57;;;;;;;3.00;2.40;;;3.90;99.90;;;;;;5000370;28;20249;-70
2023/03/07 11:12:26;;;;;;;2.50;2.40;;;4.00;99.90;;;;;;5007749;28;20292;-70
2023/03/07 11:14:56;;;;;;;2.43;2.30;;;4.00;99.90;;;;;;5007400;28;20209;-70
2023/03/07 11:17:25;;;;;;;2.93;2.33;;;4.00;99.90;;;;;;5007413;28;20672;-70
2023/03/07 11:19:54;;;;;;;2.17;2.00;;;4.00;99.90;;;;;;5007460;28;20217;-70
2023/03/07 11:22:27;;;;;;;2.03;1.93;;;4.00;99.90;;;;;;5007345;28;20355;-70
2023/03/07 11:25:00;;;;;;;2.20;2.00;;;4.00;99.90;;;;;;5007349;28;20196;-70
2023/03/07 11:27:33;;;;;;;2.20;2.10;;;4.10;99.90;;;;;;5007357;28;20228;-70
2023/03/07 11:30:25;;;;;;;1.93;1.83;;;4.10;99.90;;;;;;5007088;28;20205;-70
2023/03/07 11:33:01;;;;;;;1.80;1.70;;;4.10;99.90;;;;;;5004558;28;20707;-70
2023/03/07 11:35:39;;;;;;;1.53;1.43;;;4.10;99.90;;;;;;5007211;28;20216;-70
2023/03/07 11:38:12;;;;;;;1.90;1.57;;;4.10;99.90;;;;;;5025995;28;20208;-71
2023/03/07 11:40:49;;;;;;;1.57;1.40;;;4.20;99.90;;;;;;5025293;28;20197;-70
2023/03/07 11:43:21;;;;;;;1.50;1.40;;;4.10;99.90;;;;;;5007089;28;20526;-70
2023/03/07 11:45:56;;;;;;;1.17;1.03;;;4.10;99.90;;;;;;5007121;28;20210;-71
2023/03/07 11:48:39;;;;;;;1.40;1.30;;;4.10;99.90;;;;;;5006804;28;20237;-70
2023/03/07 11:51:15;;;;;;;1.70;1.60;;;4.00;99.90;;;;;;5006586;28;20292;-70
2023/03/07 11:53:54;;;;;;;1.97;1.77;;;4.00;99.90;;;;;;5006953;28;20197;-70
2023/03/07 11:56:32;;;;;;;0.83;0.83;;;4.00;99.90;;;;;;5006491;28;20915;-70
2023/03/07 11:59:38;;;;;;;0.93;0.93;;;3.90;99.90;;;;;;5009161;28;20201;-70
2023/03/07 12:02:21;;;;;;;0.80;0.80;;;3.90;99.90;;;;;;5010878;28;20323;-70
2023/03/07 12:05:08;;;;;;;1.07;0.80;;;3.90;99.90;;;;;;5010790;28;20208;-70
2023/03/07 12:07:58;;;;;;;0.63;0.63;;;3.90;99.90;;;;;;5010795;28;20252;-70
2023/03/07 12:10:38;;;;;;;0.63;0.60;;;3.80;99.90;;;;;;5010942;28;20204;-70
2023/03/07 12:13:16;;;;;;;1.33;0.83;;;3.70;99.90;;;;;;4991354;28;20198;-70
2023/03/07 12:15:49;;;;;;;0.90;0.80;;;3.60;99.90;;;;;;4991236;28;20297;-70
2023/03/07 12:18:40;;;;;;;1.57;0.63;;;3.60;99.90;;;;;;4991310;28;20200;-70
2023/03/07 12:21:21;;;;;;;1.87;1.27;;;3.50;99.90;;;;;;4991203;28;20726;-70
2023/03/07 12:23:51;;;;;;;2.07;1.20;;;3.40;99.90;;;;;;4991086;28;20284;-71
2023/03/07 12:26:23;;;;;;;1.00;0.93;;;3.40;99.90;;;;;;4991253;28;20230;-70
2023/03/07 12:28:57;;;;;;;2.00;0.90;;;3.30;99.90;;;;;;4990914;28;20285;-69
2023/03/07 12:31:28;;;;;;;0.63;0.63;;;3.30;99.90;;;;;;4991028;28;20301;-70
2023/03/07 12:34:02;;;;;;;0.80;0.80;;;3.10;99.90;;;;;;4991410;28;20237;-70
2023/03/07 12:36:39;;;;;;;1.73;0.80;;;3.00;99.90;;;;;;5016218;28;20297;-71
2023/03/07 12:39:16;;;;;;;1.30;0.80;;;2.90;99.90;;;;;;5030340;28;20205;-70
2023/03/07 12:41:50;;;;;;;1.77;1.00;;;2.80;99.90;;;;;;5019163;28;20331;-70
2023/03/07 12:44:31;;;;;;;1.77;1.10;;;2.80;99.90;;;;;;5010092;28;20280;-70
2023/03/07 12:47:03;;;;;;;1.60;0.87;;;2.80;99.90;;;;;;5009943;28;20237;-70
2023/03/07 12:49:37;;;;;;;0.83;0.83;;;2.80;99.90;;;;;;5009930;28;20751;-70
2023/03/07 12:52:12;;;;;;;1.40;0.80;;;2.80;99.90;;;;;;5009908;28;20217;-70
2023/03/07 12:54:44;;;;;;;1.33;1.03;;;2.70;99.90;;;;;;5010074;28;20280;-70
2023/03/07 12:57:17;;;;;;;1.47;0.93;;;2.70;99.90;;;;;;5010078;28;20308;-70
2023/03/07 12:59:49;;;;;;;1.83;1.00;;;2.70;99.90;;;;;;5009540;28;20682;-70